createdAt,value
2018-06-28T00:01:46.614Z,62.34
2018-06-28T00:06:48.748Z,62.81
2018-06-28T00:11:50.892Z,62.40
2018-06-28T00:16:53.153Z,62.05
2018-06-28T00:21:55.288Z,62.51
2018-06-28T00:26:57.407Z,63.24
2018-06-28T00:31:59.563Z,63.53
2018-06-28T00:37:01.732Z,63.55
2018-06-28T00:42:03.906Z,63.13
2018-06-28T00:47:06.031Z,63.30
2018-06-28T00:52:08.165Z,62.96
2018-06-28T00:57:10.315Z,63.52
2018-06-28T01:02:12.427Z,63.66
2018-06-28T01:07:14.552Z,63.34
2018-06-28T01:12:16.715Z,63.75
2018-06-28T01:17:18.847Z,64.26
2018-06-28T01:22:21.000Z,64.01
2018-06-28T01:27:23.144Z,65.21
2018-06-28T01:32:25.324Z,66.02
2018-06-28T01:37:27.487Z,65.96
2018-06-28T01:43:44.799Z,66.82
2018-06-28T01:48:46.948Z,67.00
2018-06-28T01:53:49.089Z,67.35
2018-06-28T01:58:51.228Z,67.34
2018-06-28T02:03:53.344Z,67.82
2018-06-28T02:08:55.439Z,68.23
2018-06-28T02:13:57.546Z,68.18
2018-06-28T02:18:59.687Z,67.97
2018-06-28T02:24:01.810Z,68.12
2018-06-28T02:29:04.033Z,68.20
2018-06-28T02:34:06.180Z,67.77
2018-06-28T02:39:08.547Z,67.86
2018-06-28T02:44:10.672Z,68.19
2018-06-28T02:49:12.796Z,68.42
2018-06-28T02:54:14.934Z,68.38
2018-06-28T02:59:17.062Z,68.95
2018-06-28T03:04:19.194Z,70.06
2018-06-28T03:09:21.311Z,69.19
2018-06-28T03:14:23.453Z,69.16
2018-06-28T03:19:25.619Z,69.08
2018-06-28T03:24:27.740Z,69.52
2018-06-28T03:29:29.851Z,69.35
2018-06-28T03:34:32.022Z,69.20
2018-06-28T03:39:34.158Z,68.93
2018-06-28T03:44:36.278Z,69.04
2018-06-28T03:49:38.460Z,70.09
2018-06-28T03:54:40.584Z,70.65
2018-06-28T03:59:42.729Z,71.62
2018-06-28T04:04:44.844Z,71.25
2018-06-28T04:09:47.194Z,70.69
2018-06-28T04:14:49.333Z,70.92
2018-06-28T04:19:51.448Z,71.97
2018-06-28T04:24:53.584Z,72.18
2018-06-28T04:29:55.711Z,72.34
2018-06-28T04:34:57.880Z,71.89
2018-06-28T04:40:00.020Z,72.66
2018-06-28T04:45:02.180Z,72.74
2018-06-28T04:50:04.349Z,72.38
2018-06-28T04:55:06.484Z,72.42
2018-06-28T05:00:08.628Z,71.81
2018-06-28T05:05:10.748Z,71.74
2018-06-28T05:10:12.882Z,71.54
2018-06-28T05:15:14.984Z,70.14
2018-06-28T05:20:17.130Z,69.13
2018-06-28T05:25:19.557Z,67.93
2018-06-28T05:30:21.707Z,66.38
2018-06-28T05:35:23.892Z,64.99
2018-06-28T05:40:26.047Z,63.99
2018-06-28T05:45:28.179Z,63.37
2018-06-28T05:50:30.309Z,61.62
2018-06-28T05:55:32.434Z,62.01
2018-06-28T06:00:34.572Z,61.92
2018-06-28T06:05:36.743Z,62.13
2018-06-28T06:10:38.925Z,60.58
2018-06-28T06:15:41.048Z,59.91
2018-06-28T06:20:43.180Z,59.86
2018-06-28T06:25:45.297Z,59.04
2018-06-28T06:30:47.484Z,58.64
2018-06-28T06:35:49.656Z,57.61
2018-06-28T06:40:51.770Z,57.48
2018-06-28T06:45:53.939Z,55.62
2018-06-28T06:50:56.094Z,55.38
2018-06-28T06:55:58.244Z,55.45
2018-06-28T07:01:00.417Z,54.36
2018-06-28T07:06:02.552Z,54.10
2018-06-28T07:11:04.814Z,54.56
2018-06-28T07:16:07.201Z,53.27
2018-06-28T07:21:09.246Z,52.60
2018-06-28T07:26:11.414Z,53.46
2018-06-28T07:31:13.593Z,53.17
2018-06-28T07:36:15.835Z,52.97
2018-06-28T07:41:17.996Z,53.21
2018-06-28T07:46:20.143Z,54.31
2018-06-28T07:51:22.251Z,54.67
2018-06-28T07:56:24.407Z,54.03
2018-06-28T08:01:26.583Z,52.32
2018-06-28T08:06:28.726Z,52.81
2018-06-28T08:11:30.853Z,53.18
2018-06-28T08:16:32.992Z,52.50
2018-06-28T08:21:35.181Z,51.66
2018-06-28T08:26:37.310Z,51.42
2018-06-28T08:31:39.461Z,51.76
2018-06-28T08:36:41.650Z,51.87
2018-06-28T08:41:43.813Z,51.36
2018-06-28T08:46:45.933Z,51.37
2018-06-28T08:51:48.084Z,50.19
2018-06-28T08:56:50.267Z,50.18
2018-06-28T09:01:52.451Z,50.31
2018-06-28T09:06:54.771Z,49.85
2018-06-28T09:11:56.916Z,50.97
2018-06-28T09:16:59.056Z,52.00
2018-06-28T09:22:01.174Z,50.81
2018-06-28T09:27:03.368Z,50.76
2018-06-28T09:32:05.592Z,50.76
2018-06-28T09:37:07.830Z,51.49
2018-06-28T09:42:10.043Z,50.49
2018-06-28T09:47:12.218Z,50.99
2018-06-28T09:52:14.356Z,47.89
2018-06-28T09:57:16.515Z,49.15
2018-06-28T10:02:18.652Z,48.87
2018-06-28T10:07:20.837Z,48.61
2018-06-28T10:12:22.979Z,48.41
2018-06-28T10:17:25.155Z,46.00
2018-06-28T10:22:27.271Z,46.37
2018-06-28T10:27:29.462Z,47.78
2018-06-28T10:32:31.620Z,46.53
2018-06-28T10:37:33.829Z,45.02
2018-06-28T10:42:35.933Z,44.48
2018-06-28T10:47:38.223Z,44.82
2018-06-28T10:52:40.327Z,45.12
2018-06-28T10:57:42.474Z,43.47
2018-06-28T11:02:44.624Z,43.68
2018-06-28T11:07:46.830Z,44.37
2018-06-28T11:12:49.007Z,42.46
2018-06-28T11:17:51.150Z,41.33
2018-06-28T11:22:53.304Z,40.42
2018-06-28T11:27:55.469Z,40.61
2018-06-28T11:32:57.578Z,41.18
2018-06-28T11:37:59.761Z,39.95
2018-06-28T11:43:01.923Z,39.07
2018-06-28T11:48:04.206Z,38.31
2018-06-28T11:53:06.377Z,37.98
2018-06-28T11:58:08.527Z,36.81
2018-06-28T12:03:10.663Z,36.65
2018-06-28T12:08:12.788Z,35.88
2018-06-28T12:13:14.917Z,35.91
2018-06-28T12:18:17.058Z,36.95
2018-06-28T12:23:19.200Z,36.44
2018-06-28T12:28:21.358Z,35.71
2018-06-28T12:33:23.503Z,35.53
2018-06-28T12:38:26.132Z,33.40
2018-06-28T12:43:29.345Z,34.83
2018-06-28T12:48:31.475Z,32.40
2018-06-28T12:53:33.630Z,32.38
2018-06-28T12:58:35.746Z,32.10
2018-06-28T13:03:37.887Z,32.70
2018-06-28T13:08:40.098Z,31.55
2018-06-28T13:13:42.310Z,31.54
2018-06-28T13:18:45.358Z,31.32
2018-06-28T13:23:47.466Z,30.75
2018-06-28T13:28:49.619Z,30.37
2018-06-28T13:33:51.836Z,28.23
2018-06-28T13:38:54.009Z,29.36
2018-06-28T13:43:56.168Z,27.40
2018-06-28T13:48:58.301Z,29.43
2018-06-28T13:54:00.435Z,28.89
2018-06-28T13:59:02.631Z,26.69
2018-06-28T14:04:04.784Z,26.61
2018-06-28T14:09:10.278Z,27.65
2018-06-28T14:14:12.664Z,25.36
2018-06-28T14:19:14.808Z,23.91
2018-06-28T14:24:16.960Z,22.37
2018-06-28T14:29:19.151Z,21.34
2018-06-28T14:34:21.359Z,22.76
2018-06-28T14:39:23.575Z,22.22
2018-06-28T14:44:25.732Z,22.59
2018-06-28T14:49:27.941Z,21.08
2018-06-28T14:54:30.114Z,20.99
2018-06-28T14:59:32.417Z,20.78
2018-06-28T15:04:34.594Z,19.98
2018-06-28T15:09:36.809Z,18.59
2018-06-28T15:14:39.039Z,19.61
2018-06-28T15:19:41.206Z,20.63
2018-06-28T15:24:43.367Z,20.83
2018-06-28T15:29:45.531Z,20.71
2018-06-28T15:34:47.696Z,20.64
2018-06-28T15:39:49.870Z,20.92
2018-06-28T15:44:52.027Z,22.53
2018-06-28T15:49:54.218Z,21.54
2018-06-28T15:54:56.363Z,21.28
2018-06-28T15:59:58.543Z,22.06
2018-06-28T16:05:00.786Z,22.01
2018-06-28T16:10:03.066Z,21.71
2018-06-28T16:15:05.286Z,21.63
2018-06-28T16:20:07.516Z,22.99
2018-06-28T16:25:09.991Z,23.07
2018-06-28T16:30:12.221Z,21.99
2018-06-28T16:35:14.350Z,23.01
2018-06-28T16:40:16.521Z,22.90
2018-06-28T16:45:18.672Z,21.91
2018-06-28T16:50:21.055Z,23.01
2018-06-28T16:55:23.249Z,23.21
2018-06-28T17:00:25.428Z,22.22
2018-06-28T17:05:27.565Z,21.79
2018-06-28T17:10:29.727Z,22.18
2018-06-28T17:15:31.933Z,21.71
2018-06-28T17:20:34.245Z,24.20
2018-06-28T17:25:36.400Z,23.38
2018-06-28T17:30:38.580Z,23.67
2018-06-28T17:35:40.784Z,24.28
2018-06-28T17:40:43.043Z,24.88
2018-06-28T17:45:45.274Z,25.66
2018-06-28T17:50:47.474Z,26.59
2018-06-28T17:55:50.494Z,27.08
2018-06-28T18:00:52.773Z,27.66
2018-06-28T18:05:54.993Z,27.86
2018-06-28T18:10:57.187Z,27.86
2018-06-28T18:16:00.062Z,28.55
2018-06-28T18:21:02.227Z,28.83
2018-06-28T18:26:04.881Z,29.21
2018-06-28T18:31:07.110Z,29.99
2018-06-28T18:36:09.335Z,31.84
2018-06-28T18:41:11.608Z,31.84
2018-06-28T18:46:13.854Z,33.33
2018-06-28T18:51:16.075Z,34.92
2018-06-28T18:56:18.288Z,35.69
2018-06-28T19:01:20.480Z,35.58
2018-06-28T19:06:22.695Z,35.19
2018-06-28T19:11:24.923Z,36.76
2018-06-28T19:16:32.909Z,37.20
2018-06-28T19:21:40.919Z,37.60
2018-06-28T19:26:43.110Z,38.09
2018-06-28T19:31:51.038Z,37.83
2018-06-28T19:36:53.289Z,38.72
2018-06-28T19:42:01.338Z,39.76
2018-06-28T19:47:03.563Z,40.42
2018-06-28T19:52:11.414Z,40.55
2018-06-28T19:57:13.630Z,41.73
2018-06-28T20:02:22.123Z,42.55
2018-06-28T20:07:24.375Z,42.82
2018-06-28T20:12:32.355Z,43.67
2018-06-28T20:17:42.924Z,44.51
2018-06-28T20:22:45.189Z,44.65
2018-06-28T20:27:53.144Z,44.83
2018-06-28T20:33:00.939Z,45.38
2018-06-28T20:38:03.188Z,45.89
2018-06-28T20:43:05.465Z,46.96
2018-06-28T20:48:08.179Z,48.14
2018-06-28T20:53:10.349Z,48.90
2018-06-28T20:58:12.529Z,49.30
2018-06-28T21:03:14.693Z,49.13
2018-06-28T21:08:16.866Z,49.64
2018-06-28T21:13:19.018Z,49.62
2018-06-28T21:18:21.156Z,50.95
2018-06-28T21:23:23.347Z,52.16
2018-06-28T21:28:25.521Z,52.55
2018-06-28T21:33:27.723Z,52.57
2018-06-28T21:38:30.487Z,51.43
2018-06-28T21:43:32.687Z,52.33
2018-06-28T21:48:34.818Z,52.68
2018-06-28T21:53:36.999Z,52.51
2018-06-28T21:58:39.160Z,52.52
2018-06-28T22:03:41.271Z,53.19
2018-06-28T22:08:43.465Z,52.84
2018-06-28T22:13:45.627Z,54.09
2018-06-28T22:18:47.821Z,54.07
2018-06-28T22:23:49.969Z,54.37
2018-06-28T22:28:52.145Z,55.15
2018-06-28T22:33:54.312Z,55.18
2018-06-28T22:38:56.486Z,55.72
2018-06-28T22:43:58.679Z,55.93
2018-06-28T22:49:00.842Z,56.24
2018-06-28T22:54:03.004Z,56.16
2018-06-28T22:59:05.142Z,56.43
2018-06-28T23:04:07.289Z,57.06
2018-06-28T23:09:09.461Z,56.94
2018-06-28T23:14:11.620Z,57.07
2018-06-28T23:19:13.833Z,57.00
2018-06-28T23:24:15.939Z,57.62
2018-06-28T23:29:18.132Z,57.42
2018-06-28T23:34:20.264Z,57.74
2018-06-28T23:39:22.369Z,57.76
2018-06-28T23:44:24.530Z,57.84
2018-06-28T23:49:26.663Z,58.19
2018-06-28T23:54:28.819Z,57.41
2018-06-28T23:59:30.999Z,58.29
